createdAt,value
2022-08-02T00:01:25.005Z,6.03
2022-08-02T00:03:51.724Z,5.88
2022-08-02T00:06:19.495Z,6.00
2022-08-02T00:08:46.635Z,5.53
2022-08-02T00:11:13.673Z,5.97
2022-08-02T00:13:40.457Z,5.63
2022-08-02T00:16:07.355Z,5.07
2022-08-02T00:18:34.256Z,6.53
2022-08-02T00:21:00.995Z,5.57
2022-08-02T00:23:27.991Z,4.63
2022-08-02T00:25:56.038Z,5.38
2022-08-02T00:28:27.046Z,4.38
2022-08-02T00:30:56.480Z,4.65
2022-08-02T00:34:27.678Z,5.75
2022-08-02T00:36:15.100Z,5.47
2022-08-02T00:38:42.335Z,4.80
2022-08-02T00:41:17.146Z,6.13
2022-08-02T00:43:47.859Z,5.57
2022-08-02T00:46:17.607Z,5.20
2022-08-02T00:48:45.089Z,4.70
2022-08-02T00:51:13.199Z,5.50
2022-08-02T00:53:40.661Z,4.93
2022-08-02T00:56:07.962Z,5.13
2022-08-02T00:58:34.808Z,5.20
2022-08-02T01:01:02.258Z,6.32
2022-08-02T01:03:29.085Z,5.55
2022-08-02T01:06:10.954Z,6.55
2022-08-02T01:08:40.025Z,7.07
2022-08-02T01:11:07.917Z,6.07
2022-08-02T01:13:34.787Z,6.85
2022-08-02T01:16:16.705Z,6.45
2022-08-02T01:18:59.357Z,6.70
2022-08-02T01:22:24.586Z,6.47
2022-08-02T01:25:55.809Z,5.47
2022-08-02T01:28:57.806Z,5.63
2022-08-02T01:31:35.662Z,5.10
2022-08-02T01:34:32.714Z,5.72
2022-08-02T01:37:16.013Z,5.80
2022-08-02T01:39:48.799Z,6.20
2022-08-02T01:42:20.654Z,6.18
2022-08-02T01:44:53.370Z,7.00
2022-08-02T01:47:38.280Z,6.82
2022-08-02T01:50:10.617Z,6.13
2022-08-02T01:52:53.237Z,6.80
2022-08-02T01:55:58.323Z,5.63
2022-08-02T01:58:34.791Z,5.88
2022-08-02T02:01:06.004Z,6.35
2022-08-02T02:03:41.567Z,7.20
2022-08-02T02:06:12.075Z,5.95
2022-08-02T02:08:44.245Z,6.13
2022-08-02T02:12:13.877Z,6.85
2022-08-02T02:14:02.812Z,5.55
2022-08-02T02:16:32.152Z,6.05
2022-08-02T02:19:05.036Z,7.20
2022-08-02T02:21:32.116Z,5.85
2022-08-02T02:24:02.650Z,6.28
2022-08-02T02:26:34.730Z,6.10
2022-08-02T02:29:09.181Z,7.35
2022-08-02T02:31:46.567Z,6.43
2022-08-02T02:34:45.476Z,7.32
2022-08-02T02:37:22.843Z,6.60
2022-08-02T02:39:55.038Z,6.65
2022-08-02T02:42:31.540Z,6.00
2022-08-02T02:45:00.981Z,6.43
2022-08-02T02:47:41.093Z,8.10
2022-08-02T02:50:11.603Z,6.90
2022-08-02T02:52:40.930Z,7.05
2022-08-02T02:55:10.767Z,7.03
2022-08-02T02:57:45.486Z,6.28
2022-08-02T03:00:15.158Z,7.22
2022-08-02T03:02:45.870Z,7.50
2022-08-02T03:05:15.866Z,7.15
2022-08-02T03:07:42.778Z,7.80
2022-08-02T03:10:10.823Z,7.13
2022-08-02T03:12:38.526Z,7.35
2022-08-02T03:15:09.296Z,6.38
2022-08-02T03:17:46.263Z,6.90
2022-08-02T03:20:20.783Z,6.38
2022-08-02T03:22:48.394Z,7.90
2022-08-02T03:25:18.700Z,7.50
2022-08-02T03:27:47.080Z,7.78
2022-08-02T03:30:15.578Z,8.15
2022-08-02T03:32:47.426Z,7.70
2022-08-02T03:35:23.283Z,7.50
2022-08-02T03:37:55.878Z,8.18
2022-08-02T03:40:25.132Z,7.40
2022-08-02T03:42:53.652Z,7.70
2022-08-02T03:45:21.502Z,7.60
2022-08-02T03:47:49.702Z,7.13
2022-08-02T03:50:18.336Z,7.75
2022-08-02T03:52:46.579Z,7.45
2022-08-02T03:55:13.950Z,7.15
2022-08-02T03:57:43.497Z,7.70
2022-08-02T04:00:19.490Z,7.93
2022-08-02T04:02:47.065Z,6.93
2022-08-02T04:05:15.555Z,7.65
2022-08-02T04:08:33.112Z,7.25
2022-08-02T04:10:30.788Z,6.70
2022-08-02T04:12:58.552Z,7.80
2022-08-02T04:15:25.535Z,6.80
2022-08-02T04:18:13.050Z,6.97
2022-08-02T04:20:48.875Z,6.60
2022-08-02T04:26:48.951Z,8.20
2022-08-02T04:45:59.425Z,7.22
2022-08-02T04:48:35.917Z,7.93
2022-08-02T04:51:05.763Z,7.05
2022-08-02T04:53:55.945Z,7.60
2022-08-02T04:56:34.134Z,8.10
2022-08-02T04:59:26.985Z,6.78
2022-08-02T05:01:54.670Z,8.00
2022-08-02T05:04:21.507Z,8.38
2022-08-02T05:06:48.406Z,7.90
2022-08-02T05:09:16.509Z,7.95
2022-08-02T05:11:44.357Z,8.63
2022-08-02T05:17:24.610Z,8.65
2022-08-02T05:19:54.645Z,8.38
2022-08-02T05:22:23.742Z,8.68
2022-08-02T05:24:51.301Z,7.03
2022-08-02T05:27:21.473Z,7.47
2022-08-02T05:29:54.156Z,7.30
2022-08-02T05:32:25.928Z,5.75
2022-08-02T05:34:53.544Z,5.95
2022-08-02T05:37:20.666Z,5.40
2022-08-02T05:39:55.701Z,4.70
2022-08-02T05:42:25.721Z,5.20
2022-08-02T05:44:52.717Z,5.40
2022-08-02T05:47:19.617Z,4.95
2022-08-02T05:49:49.842Z,4.63
2022-08-02T05:52:21.094Z,4.82
2022-08-02T05:55:17.366Z,4.05
2022-08-02T05:58:28.086Z,4.03
2022-08-02T06:01:38.014Z,4.00
2022-08-02T06:04:24.230Z,4.15
2022-08-02T06:07:38.033Z,4.20
2022-08-02T06:10:08.379Z,3.70
2022-08-02T06:13:17.787Z,3.42
2022-08-02T06:15:50.255Z,3.17
2022-08-02T06:18:28.433Z,3.05
2022-08-02T06:22:31.142Z,3.13
2022-08-02T06:23:57.700Z,3.00
2022-08-02T06:26:37.151Z,3.03
2022-08-02T06:29:04.678Z,3.22
2022-08-02T06:31:31.731Z,3.20
2022-08-02T06:34:06.308Z,3.58
2022-08-02T06:37:40.466Z,3.05
2022-08-02T06:41:18.940Z,2.83
2022-08-02T06:44:19.452Z,2.67
2022-08-02T06:47:11.065Z,2.38
2022-08-02T06:49:52.406Z,3.03
2022-08-02T06:52:31.627Z,2.63
2022-08-02T06:55:01.642Z,3.08
2022-08-02T06:57:30.270Z,2.85
2022-08-02T07:00:02.525Z,3.72
2022-08-02T07:02:31.988Z,3.38
2022-08-02T07:05:00.324Z,3.47
2022-08-02T07:07:28.375Z,3.10
2022-08-02T07:10:00.871Z,3.30
2022-08-02T07:12:47.083Z,3.20
2022-08-02T07:15:14.112Z,3.20
2022-08-02T07:17:46.084Z,3.35
2022-08-02T07:20:15.119Z,2.75
2022-08-02T07:22:55.569Z,2.90
2022-08-02T07:26:01.851Z,3.47
2022-08-02T07:28:49.946Z,2.88
2022-08-02T07:31:19.770Z,2.72
2022-08-02T07:36:29.116Z,2.65
2022-08-02T07:38:58.819Z,2.75
2022-08-02T07:41:28.608Z,3.13
2022-08-02T07:43:57.909Z,2.78
2022-08-02T07:46:25.713Z,3.20
2022-08-02T07:48:55.510Z,2.70
2022-08-02T07:51:28.726Z,3.15
2022-08-02T07:54:02.767Z,2.30
2022-08-02T07:56:31.787Z,2.67
2022-08-02T07:59:01.833Z,2.65
2022-08-02T08:01:51.811Z,2.20
2022-08-02T08:04:20.251Z,2.88
2022-08-02T08:06:54.681Z,2.47
2022-08-02T08:09:31.976Z,2.30
2022-08-02T08:11:58.953Z,2.78
2022-08-02T08:14:25.783Z,2.40
2022-08-02T08:16:52.653Z,2.70
2022-08-02T08:19:19.538Z,2.47
2022-08-02T08:21:46.611Z,2.70
2022-08-02T08:24:25.019Z,2.72
2022-08-02T08:26:51.810Z,3.03
2022-08-02T08:29:19.035Z,2.40
2022-08-02T08:31:51.441Z,2.90
2022-08-02T08:34:18.665Z,2.55
2022-08-02T08:36:45.692Z,2.35
2022-08-02T08:39:12.593Z,2.10
2022-08-02T08:41:46.124Z,3.00
2022-08-02T08:44:13.099Z,3.13
2022-08-02T08:46:44.331Z,2.85
2022-08-02T08:49:52.497Z,3.30
2022-08-02T08:52:29.542Z,2.55
2022-08-02T08:54:57.536Z,2.60
2022-08-02T08:57:35.417Z,2.85
2022-08-02T09:00:06.803Z,2.72
2022-08-02T09:02:36.591Z,2.88
2022-08-02T09:05:03.818Z,2.72
2022-08-02T09:07:32.112Z,2.55
2022-08-02T09:09:58.917Z,2.38
2022-08-02T09:12:26.027Z,2.08
2022-08-02T09:14:52.928Z,2.58
2022-08-02T09:17:21.933Z,3.00
2022-08-02T09:20:08.753Z,2.40
2022-08-02T09:22:35.606Z,2.70
2022-08-02T09:25:02.425Z,2.72
2022-08-02T09:27:37.332Z,2.97
2022-08-02T09:30:16.713Z,2.40
2022-08-02T09:32:49.638Z,2.30
2022-08-02T09:36:06.882Z,2.33
2022-08-02T09:38:28.195Z,2.20
2022-08-02T09:44:03.338Z,2.38
2022-08-02T09:46:46.122Z,2.67
2022-08-02T09:49:24.944Z,2.38
2022-08-02T09:51:57.624Z,2.50
2022-08-02T09:54:37.224Z,2.80
2022-08-02T09:57:09.451Z,2.53
2022-08-02T09:59:36.967Z,2.35
2022-08-02T10:02:14.640Z,2.58
2022-08-02T10:04:52.882Z,2.45
2022-08-02T10:07:29.603Z,2.50
2022-08-02T10:10:07.436Z,1.90
2022-08-02T10:12:38.063Z,2.88
2022-08-02T10:15:13.761Z,2.40
2022-08-02T10:17:48.227Z,2.20
2022-08-02T10:20:46.676Z,2.95
2022-08-02T10:23:32.437Z,2.75
2022-08-02T10:26:13.072Z,1.80
2022-08-02T10:28:54.753Z,3.03
2022-08-02T10:31:32.467Z,2.50
2022-08-02T10:34:19.574Z,2.25
2022-08-02T10:36:53.221Z,2.20
2022-08-02T10:39:22.591Z,2.45
2022-08-02T10:41:54.909Z,2.00
2022-08-02T10:44:33.077Z,2.33
2022-08-02T10:47:15.464Z,2.08
2022-08-02T10:50:01.999Z,2.30
2022-08-02T10:52:33.491Z,2.58
2022-08-02T10:55:10.952Z,2.25
2022-08-02T10:57:48.733Z,2.00
2022-08-02T11:00:24.538Z,2.08
2022-08-02T11:02:53.873Z,2.63
2022-08-02T11:05:43.325Z,2.20
2022-08-02T11:08:22.705Z,2.40
2022-08-02T11:10:49.614Z,2.50
2022-08-02T11:13:19.851Z,2.05
2022-08-02T11:16:11.229Z,2.20
2022-08-02T11:18:52.346Z,2.28
2022-08-02T11:21:36.395Z,2.70
2022-08-02T11:24:36.837Z,3.03
2022-08-02T11:27:23.975Z,1.88
2022-08-02T11:29:50.835Z,2.35
2022-08-02T11:32:31.139Z,2.13
2022-08-02T11:34:59.144Z,2.30
2022-08-02T11:37:36.412Z,2.08
2022-08-02T11:40:20.949Z,2.40
2022-08-02T11:42:55.736Z,2.38
2022-08-02T11:45:29.942Z,2.58
2022-08-02T11:48:00.122Z,2.40
2022-08-02T11:50:29.802Z,2.13
2022-08-02T11:52:59.212Z,2.40
2022-08-02T11:55:32.542Z,2.42
2022-08-02T11:58:06.212Z,1.95
2022-08-02T12:00:34.270Z,1.77
2022-08-02T12:03:02.459Z,2.15
2022-08-02T12:06:03.797Z,1.98
2022-08-02T12:08:25.521Z,2.13
2022-08-02T12:10:53.463Z,1.92
2022-08-02T12:13:22.731Z,2.10
2022-08-02T12:15:49.594Z,1.90
2022-08-02T12:18:45.600Z,1.83
2022-08-02T12:21:26.158Z,1.83
2022-08-02T12:23:58.803Z,1.85
2022-08-02T12:26:30.273Z,1.90
2022-08-02T12:29:03.099Z,2.28
2022-08-02T12:31:55.816Z,3.03
2022-08-02T12:34:30.038Z,2.28
2022-08-02T12:37:10.955Z,1.40
2022-08-02T12:39:45.815Z,2.25
2022-08-02T12:42:18.868Z,2.13
2022-08-02T12:45:00.034Z,2.00
2022-08-02T12:47:31.383Z,2.03
2022-08-02T12:50:24.974Z,1.90
2022-08-02T12:53:03.943Z,1.63
2022-08-02T12:56:00.863Z,1.70
2022-08-02T12:58:18.990Z,1.98
2022-08-02T13:01:00.612Z,1.80
2022-08-02T13:04:07.554Z,1.92
2022-08-02T13:06:42.215Z,1.52
2022-08-02T13:09:14.201Z,1.65
2022-08-02T13:11:43.236Z,2.03
2022-08-02T13:14:12.336Z,1.60
2022-08-02T13:16:40.466Z,1.48
2022-08-02T13:19:07.242Z,1.65
2022-08-02T13:21:41.052Z,1.50
2022-08-02T13:24:39.989Z,1.40
2022-08-02T13:27:11.092Z,1.40
2022-08-02T13:29:39.330Z,1.60
2022-08-02T13:32:06.519Z,1.38
2022-08-02T13:34:33.602Z,1.70
2022-08-02T13:37:00.855Z,1.50
2022-08-02T13:39:27.598Z,1.60
2022-08-02T13:41:55.221Z,1.50
2022-08-02T13:44:22.567Z,1.60
2022-08-02T13:46:49.343Z,1.50
2022-08-02T13:49:19.995Z,1.70
2022-08-02T13:51:48.674Z,1.60
2022-08-02T13:54:17.192Z,1.80
2022-08-02T13:56:44.579Z,2.30
2022-08-02T13:59:57.798Z,2.20
2022-08-02T14:01:59.571Z,1.77
2022-08-02T14:04:29.271Z,2.10
2022-08-02T14:07:02.467Z,2.00
2022-08-02T14:09:32.610Z,2.00
2022-08-02T14:12:00.690Z,1.92
2022-08-02T14:14:30.695Z,2.10
2022-08-02T14:16:59.024Z,2.05
2022-08-02T14:19:28.785Z,1.67
2022-08-02T14:22:11.116Z,2.10
2022-08-02T14:24:43.352Z,1.80
2022-08-02T14:27:10.878Z,1.50
2022-08-02T14:29:37.634Z,2.00
2022-08-02T14:32:04.792Z,2.08
2022-08-02T14:34:34.996Z,1.75
2022-08-02T14:37:02.311Z,1.50
2022-08-02T14:39:42.852Z,2.00
2022-08-02T14:42:16.274Z,2.03
2022-08-02T14:44:47.705Z,1.75
2022-08-02T14:47:16.902Z,1.98
2022-08-02T14:49:48.303Z,2.10
2022-08-02T14:52:17.066Z,2.25
2022-08-02T14:54:43.829Z,2.03
2022-08-02T14:57:14.655Z,1.92
2022-08-02T14:59:42.435Z,2.17
2022-08-02T15:02:11.883Z,1.60
2022-08-02T15:04:42.912Z,1.88
2022-08-02T15:07:10.778Z,2.42
2022-08-02T15:09:39.676Z,2.10
2022-08-02T15:12:08.845Z,2.25
2022-08-02T15:14:35.804Z,2.05
2022-08-02T15:17:02.662Z,1.77
2022-08-02T15:19:56.511Z,2.85
2022-08-02T15:22:19.868Z,2.20
2022-08-02T15:24:48.890Z,2.10
2022-08-02T15:27:17.141Z,2.33
2022-08-02T15:29:47.296Z,2.30
2022-08-02T15:32:19.444Z,2.78
2022-08-02T15:34:47.901Z,2.35
2022-08-02T15:37:14.819Z,2.00
2022-08-02T15:39:41.597Z,3.10
2022-08-02T15:42:08.509Z,2.80
2022-08-02T15:44:35.580Z,3.13
2022-08-02T15:47:06.272Z,2.80
2022-08-02T15:49:33.086Z,2.58
2022-08-02T15:52:00.421Z,2.40
2022-08-02T15:54:27.359Z,2.20
2022-08-02T15:56:54.261Z,2.75
2022-08-02T15:59:21.414Z,2.70
2022-08-02T16:01:48.902Z,2.35
2022-08-02T16:04:17.505Z,2.17
2022-08-02T16:06:48.233Z,2.63
2022-08-02T16:09:15.037Z,2.90
2022-08-02T16:11:41.883Z,2.90
2022-08-02T16:14:11.859Z,2.33
2022-08-02T16:16:42.590Z,2.80
2022-08-02T16:19:46.269Z,2.50
2022-08-02T16:21:56.392Z,2.50
2022-08-02T16:24:26.964Z,3.25
2022-08-02T16:26:56.641Z,3.05
2022-08-02T16:29:26.742Z,3.28
2022-08-02T16:32:02.518Z,4.35
2022-08-02T16:34:40.300Z,4.18
2022-08-02T16:37:16.385Z,4.07
2022-08-02T16:39:43.432Z,4.75
2022-08-02T16:42:10.203Z,7.00
2022-08-02T16:44:38.385Z,5.07
2022-08-02T16:47:05.548Z,5.93
2022-08-02T16:50:06.049Z,5.60
2022-08-02T16:52:20.036Z,6.22
2022-08-02T16:54:49.852Z,5.20
2022-08-02T16:57:20.793Z,5.65
2022-08-02T16:59:58.231Z,5.20
2022-08-02T17:02:34.070Z,5.55
2022-08-02T17:05:14.425Z,6.15
2022-08-02T17:08:08.184Z,6.78
2022-08-02T17:10:39.161Z,6.72
2022-08-02T17:13:11.049Z,7.68
2022-08-02T17:16:07.806Z,7.30
2022-08-02T17:18:30.288Z,6.15
2022-08-02T17:20:57.310Z,7.43
2022-08-02T17:23:47.233Z,7.10
2022-08-02T17:26:32.388Z,7.15
2022-08-02T17:29:14.370Z,7.13
2022-08-02T17:32:04.686Z,7.35
2022-08-02T17:34:48.859Z,7.22
2022-08-02T17:37:33.339Z,7.20
2022-08-02T17:40:03.511Z,7.70
2022-08-02T17:42:37.020Z,6.90
2022-08-02T17:45:24.909Z,7.40
2022-08-02T17:48:03.772Z,7.45
2022-08-02T17:50:35.835Z,7.60
2022-08-02T17:53:04.744Z,6.97
2022-08-02T17:55:37.966Z,8.43
2022-08-02T17:58:07.545Z,7.88
2022-08-02T18:00:39.645Z,8.35
2022-08-02T18:03:10.010Z,8.70
2022-08-02T18:05:53.134Z,7.63
2022-08-02T18:08:24.310Z,5.28
2022-08-02T18:10:56.711Z,6.55
2022-08-02T18:13:24.306Z,7.35
2022-08-02T18:15:59.118Z,7.03
2022-08-02T18:18:29.723Z,7.05
2022-08-02T18:21:15.502Z,6.68
2022-08-02T18:23:48.555Z,7.35
2022-08-02T18:26:20.755Z,6.93
2022-08-02T18:28:50.846Z,7.25
2022-08-02T18:31:22.445Z,8.10
2022-08-02T18:39:29.100Z,6.28
2022-08-02T18:41:59.957Z,5.95
2022-08-02T18:44:30.081Z,5.60
2022-08-02T18:46:57.746Z,6.88
2022-08-02T18:49:30.083Z,6.25
2022-08-02T18:52:15.071Z,5.88
2022-08-02T18:54:42.566Z,5.85
2022-08-02T18:58:17.911Z,5.85
2022-08-02T19:00:08.587Z,5.82
2022-08-02T19:02:40.459Z,5.57
2022-08-02T19:05:53.147Z,5.13
2022-08-02T19:08:25.380Z,5.22
2022-08-02T19:10:55.167Z,6.13
2022-08-02T19:13:24.650Z,5.90
2022-08-02T19:15:55.777Z,5.18
2022-08-02T19:18:26.713Z,6.55
2022-08-02T19:23:33.150Z,6.93
2022-08-02T19:26:04.661Z,6.13
2022-08-02T19:28:31.471Z,6.30
2022-08-02T19:30:58.630Z,6.80
2022-08-02T19:34:06.118Z,6.68
2022-08-02T19:36:12.825Z,6.53
2022-08-02T19:39:23.759Z,8.70
2022-08-02T19:42:07.054Z,6.32
2022-08-02T19:44:34.357Z,7.90
2022-08-02T19:47:05.081Z,6.75
2022-08-02T19:49:40.833Z,7.93
2022-08-02T19:52:21.383Z,7.38
2022-08-02T19:54:55.174Z,6.38
2022-08-02T19:57:25.106Z,6.80
2022-08-02T19:59:54.391Z,7.45
2022-08-02T20:02:24.698Z,7.55
2022-08-02T20:04:53.340Z,7.10
2022-08-02T20:07:54.526Z,7.22
2022-08-02T20:10:24.657Z,7.32
2022-08-02T20:12:55.096Z,7.18
2022-08-02T20:15:55.905Z,7.82
2022-08-02T20:18:11.754Z,8.15
2022-08-02T20:20:48.441Z,7.78
2022-08-02T20:23:33.363Z,7.13
2022-08-02T20:26:02.324Z,7.07
2022-08-02T20:28:30.224Z,7.80
2022-08-02T20:30:57.764Z,7.47
2022-08-02T20:33:34.784Z,7.95
2022-08-02T20:36:22.846Z,8.25
2022-08-02T20:38:50.221Z,8.32
2022-08-02T20:41:20.281Z,7.97
2022-08-02T20:43:50.117Z,9.00
2022-08-02T20:46:17.441Z,8.70
2022-08-02T20:48:46.942Z,7.80
2022-08-02T20:51:16.656Z,8.50
2022-08-02T20:53:56.116Z,8.77
2022-08-02T20:56:23.842Z,8.45
2022-08-02T20:58:56.027Z,7.80
2022-08-02T21:01:36.918Z,7.00
2022-08-02T21:04:05.292Z,8.70
2022-08-02T21:06:33.291Z,7.75
2022-08-02T21:09:00.075Z,8.95
2022-08-02T21:11:33.763Z,8.35
2022-08-02T21:14:09.046Z,7.97
2022-08-02T21:16:37.050Z,7.07
2022-08-02T21:19:09.778Z,7.45
2022-08-02T21:21:37.765Z,7.63
2022-08-02T21:24:05.557Z,8.73
2022-08-02T21:26:33.249Z,8.38
2022-08-02T21:29:03.543Z,8.43
2022-08-02T21:31:35.798Z,8.48
2022-08-02T21:34:21.933Z,7.63
2022-08-02T21:36:52.722Z,7.32
2022-08-02T21:39:24.883Z,7.45
2022-08-02T21:41:52.522Z,7.28
2022-08-02T21:44:22.290Z,8.70
2022-08-02T21:46:59.774Z,8.05
2022-08-02T21:50:08.874Z,8.05
2022-08-02T21:52:20.758Z,8.25
2022-08-02T21:54:55.762Z,8.88
2022-08-02T21:57:25.122Z,8.25
2022-08-02T22:00:02.059Z,9.05
2022-08-02T22:02:31.051Z,8.65
2022-08-02T22:04:58.679Z,8.73
2022-08-02T22:07:25.631Z,8.77
2022-08-02T22:09:55.561Z,8.73
2022-08-02T22:12:26.042Z,9.07
2022-08-02T22:14:57.138Z,8.60
2022-08-02T22:17:51.963Z,7.60
2022-08-02T22:20:19.730Z,7.95
2022-08-02T22:22:52.603Z,7.80
2022-08-02T22:25:27.251Z,9.10
2022-08-02T22:28:37.344Z,8.43
2022-08-02T22:31:04.754Z,7.93
2022-08-02T22:34:00.720Z,8.15
2022-08-02T22:36:32.087Z,6.07
2022-08-02T22:39:02.191Z,6.45
2022-08-02T22:42:01.937Z,6.50
2022-08-02T22:44:20.286Z,5.35
2022-08-02T22:46:50.526Z,5.55
2022-08-02T22:49:38.642Z,5.32
2022-08-02T22:52:05.161Z,4.93
2022-08-02T22:54:32.575Z,5.07
2022-08-02T22:56:59.472Z,4.43
2022-08-02T22:58:44.771Z,7.53
2022-08-02T22:58:57.503Z,6.60
2022-08-02T22:59:38.675Z,4.85
2022-08-02T23:02:07.583Z,4.72
2022-08-02T23:04:34.611Z,4.00
2022-08-02T23:07:01.578Z,4.25
2022-08-02T23:09:29.087Z,3.95
2022-08-02T23:11:56.172Z,4.38
2022-08-02T23:14:32.881Z,4.60
2022-08-02T23:17:18.625Z,4.75
2022-08-02T23:19:54.376Z,4.00
2022-08-02T23:22:29.834Z,4.32
2022-08-02T23:25:03.221Z,4.38
2022-08-02T23:27:35.719Z,4.05
2022-08-02T23:30:04.806Z,4.55
2022-08-02T23:32:41.528Z,4.82
2022-08-02T23:35:09.777Z,4.72
2022-08-02T23:38:00.276Z,4.20
2022-08-02T23:40:40.497Z,4.18
2022-08-02T23:43:19.201Z,4.60
2022-08-02T23:45:46.641Z,4.68
2022-08-02T23:48:21.926Z,4.72
2022-08-02T23:50:59.474Z,4.53
2022-08-02T23:53:32.631Z,5.38
2022-08-02T23:56:01.002Z,4.85
2022-08-02T23:58:32.989Z,4.55
